Time;durP1;ratioP1;P1;durP2;ratioP2;P2;SDS_P1;SDS_P2;PMS_P1;PMS_P2;Temp;Humidity;BMP_temperature;BMP_pressure;BME280_temperature;BME280_humidity;BME280_pressure;Samples;Min_cycle;Max_cycle;Signal;HPM_P1;HPM_P2
2021/12/15 00:00:15;;;;;;;92.05;29.50;;;;;;;;;;4979480;28;20042;-43
2021/12/15 00:02:44;;;;;;;89.97;29.70;;;;;;;;;;4980139;28;20014;-41
2021/12/15 00:05:10;;;;;;;84.38;27.27;;;;;;;;;;4980325;28;20026;-41
2021/12/15 00:07:36;;;;;;;88.70;27.80;;;;;;;;;;4980441;28;20617;-40
2021/12/15 00:10:04;;;;;;;88.25;27.00;;;;;;;;;;4979462;28;20072;-42
2021/12/15 00:12:30;;;;;;;82.88;26.52;;;;;;;;;;4980850;28;20113;-43
2021/12/15 00:14:56;;;;;;;82.85;26.00;;;;;;;;;;4996402;28;20464;-42
2021/12/15 00:17:23;;;;;;;88.43;27.38;;;;;;;;;;5007835;28;20029;-41
2021/12/15 00:19:50;;;;;;;82.95;25.77;;;;;;;;;;4998396;28;20042;-43
2021/12/15 00:22:16;;;;;;;85.03;25.13;;;;;;;;;;4989583;28;20040;-42
2021/12/15 00:24:42;;;;;;;76.70;26.70;;;;;;;;;;4999887;28;20037;-41
2021/12/15 00:27:08;;;;;;;85.85;26.65;;;;;;;;;;5002182;28;20026;-42
2021/12/15 00:29:35;;;;;;;77.60;25.27;;;;;;;;;;5001433;28;20025;-41
2021/12/15 00:32:04;;;;;;;74.95;23.90;;;;;;;;;;4995698;28;20062;-43
2021/12/15 00:34:31;;;;;;;78.90;25.95;;;;;;;;;;4993910;28;20034;-41
2021/12/15 00:36:57;;;;;;;79.18;25.05;;;;;;;;;;5001026;28;20060;-41
2021/12/15 00:39:23;;;;;;;78.85;25.60;;;;;;;;;;5001544;28;20111;-42
2021/12/15 00:41:49;;;;;;;76.88;26.10;;;;;;;;;;4995090;28;20389;-41
2021/12/15 00:44:16;;;;;;;69.65;23.50;;;;;;;;;;4996026;28;20109;-40
2021/12/15 00:46:42;;;;;;;72.82;24.27;;;;;;;;;;4995026;28;20056;-41
2021/12/15 00:49:09;;;;;;;65.97;22.15;;;;;;;;;;4995462;28;20137;-42
2021/12/15 00:51:36;;;;;;;76.03;25.15;;;;;;;;;;4987309;28;20108;-41
2021/12/15 00:54:02;;;;;;;74.28;25.42;;;;;;;;;;4995342;28;20105;-40
2021/12/15 00:56:28;;;;;;;86.88;25.65;;;;;;;;;;4998122;28;20066;-40
2021/12/15 00:58:54;;;;;;;69.63;23.73;;;;;;;;;;5002334;28;20081;-42
2021/12/15 01:01:23;;;;;;;71.65;24.23;;;;;;;;;;4992987;28;20026;-40
2021/12/15 01:03:49;;;;;;;71.05;24.95;;;;;;;;;;4994298;28;20061;-40
2021/12/15 01:06:18;;;;;;;72.18;23.65;;;;;;;;;;4999959;28;20499;-39
2021/12/15 01:08:46;;;;;;;71.45;24.58;;;;;;;;;;5002711;28;20017;-41
2021/12/15 01:11:28;;;;;;;85.45;27.05;;;;;;;;;;4993665;28;20033;-39
2021/12/15 01:22:14;;;;;;;72.90;25.17;;;;;;;;;;4994557;28;20057;-40
2021/12/15 01:24:40;;;;;;;70.40;23.45;;;;;;;;;;4993412;28;20440;-40
2021/12/15 01:27:06;;;;;;;68.63;24.15;;;;;;;;;;5000927;28;20030;-40
2021/12/15 01:29:32;;;;;;;82.25;26.92;;;;;;;;;;4998925;28;20315;-41
2021/12/15 01:31:58;;;;;;;71.60;25.23;;;;;;;;;;4993299;28;20064;-41
2021/12/15 01:34:24;;;;;;;83.05;27.55;;;;;;;;;;4998274;28;20048;-41
2021/12/15 01:36:50;;;;;;;84.15;26.80;;;;;;;;;;4992931;28;20533;-40
2021/12/15 01:39:16;;;;;;;76.68;26.35;;;;;;;;;;4979556;28;20058;-40
2021/12/15 01:41:43;;;;;;;84.75;29.27;;;;;;;;;;4981435;28;20489;-40
2021/12/15 01:46:58;;;;;;;93.90;29.15;;;;;;;;;;4978878;28;20037;-40
2021/12/15 01:49:33;;;;;;;92.32;29.63;;;;;;;;;;4979794;28;20033;-41
2021/12/15 01:52:01;;;;;;;83.82;30.65;;;;;;;;;;4984168;28;20035;-40
2021/12/15 01:54:28;;;;;;;105.22;31.98;;;;;;;;;;4986026;28;20066;-42
2021/12/15 01:56:54;;;;;;;93.35;32.58;;;;;;;;;;4981180;28;20070;-45
2021/12/15 01:59:21;;;;;;;103.75;34.65;;;;;;;;;;4987106;28;20060;-43
2021/12/15 02:01:47;;;;;;;94.97;31.02;;;;;;;;;;4982403;28;20030;-42
2021/12/15 02:04:16;;;;;;;111.57;34.20;;;;;;;;;;4982555;28;20679;-42
2021/12/15 02:06:44;;;;;;;100.07;32.15;;;;;;;;;;4981517;28;20034;-43
2021/12/15 02:09:12;;;;;;;101.82;31.67;;;;;;;;;;4981061;28;20030;-43
2021/12/15 02:11:38;;;;;;;103.18;32.35;;;;;;;;;;4982624;28;20030;-43
2021/12/15 02:14:04;;;;;;;114.70;32.90;;;;;;;;;;4987269;28;20043;-44
2021/12/15 02:16:30;;;;;;;95.10;31.98;;;;;;;;;;4979172;28;20084;-44
2021/12/15 02:18:56;;;;;;;103.68;34.40;;;;;;;;;;4979393;28;20062;-43
2021/12/15 02:21:25;;;;;;;114.65;33.35;;;;;;;;;;4979419;28;20065;-43
2021/12/15 02:23:54;;;;;;;115.55;32.47;;;;;;;;;;4980414;28;20455;-44
2021/12/15 02:26:26;;;;;;;108.75;33.10;;;;;;;;;;4988254;28;20053;-43
2021/12/15 02:28:54;;;;;;;119.28;34.05;;;;;;;;;;4985595;28;20035;-42
2021/12/15 02:31:35;;;;;;;124.07;37.03;;;;;;;;;;4990300;28;20029;-41
2021/12/15 02:34:20;;;;;;;127.57;33.95;;;;;;;;;;4983665;28;20393;-42
2021/12/15 02:39:29;;;;;;;118.50;34.90;;;;;;;;;;4983966;28;20042;-42
2021/12/15 02:41:55;;;;;;;139.32;34.65;;;;;;;;;;4980811;28;20034;-43
2021/12/15 02:44:23;;;;;;;123.18;32.60;;;;;;;;;;4989996;28;20038;-44
2021/12/15 02:46:50;;;;;;;122.18;34.72;;;;;;;;;;4989720;28;20039;-44
2021/12/15 02:49:17;;;;;;;134.27;34.30;;;;;;;;;;4983843;28;20042;-42
2021/12/15 02:51:44;;;;;;;128.75;33.92;;;;;;;;;;4983248;28;20426;-42
2021/12/15 02:54:12;;;;;;;144.85;37.20;;;;;;;;;;4983887;28;20022;-44
2021/12/15 02:56:39;;;;;;;137.63;36.63;;;;;;;;;;4979588;28;20035;-43
2021/12/15 02:59:07;;;;;;;131.60;35.17;;;;;;;;;;4984758;28;20058;-42
2021/12/15 03:01:53;;;;;;;113.97;34.42;;;;;;;;;;4978253;28;20362;-42
2021/12/15 03:04:42;;;;;;;123.25;35.38;;;;;;;;;;4980949;28;20458;-42
2021/12/15 03:07:18;;;;;;;134.23;36.10;;;;;;;;;;4983850;28;20368;-42
2021/12/15 03:18:02;;;;;;;146.68;36.47;;;;;;;;;;4987256;28;20070;-44
2021/12/15 03:20:30;;;;;;;143.95;36.70;;;;;;;;;;4982981;28;20057;-44
2021/12/15 03:22:56;;;;;;;152.25;36.30;;;;;;;;;;4986014;28;20027;-43
2021/12/15 03:25:25;;;;;;;147.35;37.38;;;;;;;;;;4988857;28;20030;-44
2021/12/15 03:36:34;;;;;;;142.45;36.00;;;;;;;;;;4974566;28;20049;-42
2021/12/15 03:39:00;;;;;;;151.43;36.70;;;;;;;;;;4981116;28;20157;-42
2021/12/15 03:41:26;;;;;;;148.38;36.05;;;;;;;;;;4984525;28;20468;-42
2021/12/15 03:43:52;;;;;;;148.00;36.30;;;;;;;;;;4985464;28;20058;-43
2021/12/15 03:46:18;;;;;;;155.65;34.92;;;;;;;;;;4980719;28;20050;-42
2021/12/15 03:48:45;;;;;;;146.75;35.70;;;;;;;;;;4980740;28;20031;-40
2021/12/15 03:51:13;;;;;;;159.60;37.25;;;;;;;;;;4981718;28;20022;-42
2021/12/15 03:53:39;;;;;;;155.68;37.40;;;;;;;;;;4983264;28;20438;-41
2021/12/15 03:56:08;;;;;;;157.18;37.00;;;;;;;;;;4983010;28;20049;-41
2021/12/15 03:58:34;;;;;;;170.65;37.50;;;;;;;;;;4979467;28;20108;-40
2021/12/15 04:01:03;;;;;;;155.95;38.10;;;;;;;;;;4981440;28;20030;-41
2021/12/15 04:03:34;;;;;;;182.25;40.50;;;;;;;;;;4981326;28;20213;-40
2021/12/15 04:06:01;;;;;;;162.07;39.60;;;;;;;;;;4995284;28;20084;-40
2021/12/15 04:08:28;;;;;;;186.23;39.13;;;;;;;;;;4982873;28;20112;-40
2021/12/15 04:10:55;;;;;;;177.43;38.38;;;;;;;;;;4978824;28;20043;-40
2021/12/15 04:13:21;;;;;;;156.65;36.65;;;;;;;;;;4984260;28;20074;-44
2021/12/15 04:15:53;;;;;;;170.88;40.53;;;;;;;;;;4979081;28;20019;-41
2021/12/15 04:18:20;;;;;;;181.98;38.75;;;;;;;;;;4982763;28;20388;-42
2021/12/15 04:20:46;;;;;;;177.63;40.08;;;;;;;;;;4981283;28;20064;-41
2021/12/15 04:23:19;;;;;;;167.32;38.83;;;;;;;;;;4984071;28;20026;-39
2021/12/15 04:25:46;;;;;;;175.27;42.20;;;;;;;;;;4980881;28;20022;-40
2021/12/15 04:28:13;;;;;;;210.40;41.58;;;;;;;;;;4983416;28;20025;-41
2021/12/15 04:30:44;;;;;;;186.85;39.67;;;;;;;;;;4981258;28;20027;-40
2021/12/15 04:33:16;;;;;;;213.10;41.85;;;;;;;;;;4984578;28;20117;-40
2021/12/15 04:35:43;;;;;;;188.45;40.90;;;;;;;;;;4981263;28;20031;-40
2021/12/15 04:38:10;;;;;;;218.85;43.85;;;;;;;;;;4983742;28;20050;-40
2021/12/15 04:40:36;;;;;;;212.38;46.30;;;;;;;;;;4980692;28;20065;-40
2021/12/15 04:43:02;;;;;;;232.02;45.08;;;;;;;;;;4981295;28;20058;-41
2021/12/15 04:45:29;;;;;;;201.05;42.13;;;;;;;;;;4984127;28;20114;-42
2021/12/15 04:47:55;;;;;;;224.00;45.88;;;;;;;;;;4983709;28;20046;-41
2021/12/15 04:50:23;;;;;;;212.48;44.20;;;;;;;;;;4981027;28;20022;-41
2021/12/15 04:52:49;;;;;;;230.55;45.97;;;;;;;;;;4981439;28;20076;-40
2021/12/15 04:55:15;;;;;;;241.95;46.95;;;;;;;;;;4985627;28;20034;-43
2021/12/15 04:57:41;;;;;;;243.43;46.15;;;;;;;;;;4982858;28;20030;-40
2021/12/15 05:00:09;;;;;;;224.65;47.13;;;;;;;;;;4987966;28;20037;-40
2021/12/15 05:02:36;;;;;;;223.75;45.72;;;;;;;;;;4983288;28;20022;-39
2021/12/15 05:05:03;;;;;;;246.20;47.28;;;;;;;;;;4981411;28;20042;-38
2021/12/15 05:07:29;;;;;;;222.85;46.47;;;;;;;;;;4987195;28;20049;-40
2021/12/15 05:09:55;;;;;;;263.25;50.10;;;;;;;;;;4983057;28;20520;-41
2021/12/15 05:12:22;;;;;;;226.90;49.20;;;;;;;;;;4984244;28;20474;-42
2021/12/15 05:14:49;;;;;;;261.25;50.33;;;;;;;;;;4979955;28;20057;-39
2021/12/15 05:17:15;;;;;;;218.15;47.25;;;;;;;;;;4983811;28;20532;-42
2021/12/15 05:19:43;;;;;;;231.30;49.55;;;;;;;;;;4979091;28;20050;-40
2021/12/15 05:22:09;;;;;;;263.38;50.38;;;;;;;;;;4985947;28;20022;-42
2021/12/15 05:24:35;;;;;;;255.85;54.08;;;;;;;;;;4997472;28;20538;-40
2021/12/15 05:27:05;;;;;;;270.33;53.50;;;;;;;;;;4998354;28;20342;-41
2021/12/15 05:29:31;;;;;;;256.70;53.58;;;;;;;;;;4998536;28;20084;-40
2021/12/15 05:31:57;;;;;;;276.98;56.38;;;;;;;;;;4998597;28;20129;-41
2021/12/15 05:34:25;;;;;;;272.23;55.60;;;;;;;;;;4994009;28;20406;-40
2021/12/15 05:36:52;;;;;;;266.42;55.42;;;;;;;;;;4992070;28;20030;-40
2021/12/15 05:39:18;;;;;;;255.25;52.35;;;;;;;;;;4998671;28;20027;-40
2021/12/15 05:41:44;;;;;;;266.80;52.83;;;;;;;;;;4990175;28;20112;-41
2021/12/15 05:44:10;;;;;;;255.65;54.58;;;;;;;;;;4984917;28;20050;-40
2021/12/15 05:46:36;;;;;;;287.45;56.85;;;;;;;;;;4981503;28;20042;-42
2021/12/15 05:49:04;;;;;;;282.67;55.47;;;;;;;;;;4982009;28;20157;-41
2021/12/15 05:51:30;;;;;;;274.98;56.90;;;;;;;;;;4983847;28;20117;-42
2021/12/15 05:53:56;;;;;;;295.88;57.40;;;;;;;;;;4982094;28;20058;-40
2021/12/15 05:56:22;;;;;;;270.38;57.00;;;;;;;;;;4979414;28;20022;-41
2021/12/15 05:58:48;;;;;;;246.35;53.25;;;;;;;;;;4980298;28;20035;-40
2021/12/15 06:01:14;;;;;;;250.85;52.70;;;;;;;;;;4989223;28;20039;-43
2021/12/15 06:03:40;;;;;;;250.38;56.42;;;;;;;;;;4985494;28;20390;-42
2021/12/15 06:06:06;;;;;;;263.27;55.88;;;;;;;;;;4987465;28;20026;-40
2021/12/15 06:08:33;;;;;;;248.48;54.03;;;;;;;;;;4985573;28;20053;-41
2021/12/15 06:10:59;;;;;;;272.60;55.95;;;;;;;;;;4983655;28;20117;-41
2021/12/15 06:13:27;;;;;;;253.48;54.75;;;;;;;;;;4988978;28;20033;-39
2021/12/15 06:15:53;;;;;;;248.25;55.47;;;;;;;;;;4983224;28;20597;-39
2021/12/15 06:18:20;;;;;;;253.32;55.90;;;;;;;;;;4987019;28;20029;-39
2021/12/15 06:20:47;;;;;;;217.80;50.00;;;;;;;;;;4982350;28;20062;-41
2021/12/15 06:23:22;;;;;;;232.55;51.97;;;;;;;;;;4985341;28;20169;-40
2021/12/15 06:25:51;;;;;;;230.00;54.70;;;;;;;;;;4986571;28;20386;-41
2021/12/15 06:28:18;;;;;;;203.18;48.45;;;;;;;;;;4982330;28;20054;-39
2021/12/15 06:30:47;;;;;;;213.77;52.03;;;;;;;;;;4977622;28;20081;-38
2021/12/15 06:33:14;;;;;;;213.40;53.65;;;;;;;;;;4981386;28;20035;-43
2021/12/15 06:35:40;;;;;;;196.27;50.72;;;;;;;;;;4983858;28;20030;-42
2021/12/15 06:38:07;;;;;;;204.73;50.40;;;;;;;;;;4985626;28;20458;-42
2021/12/15 06:40:33;;;;;;;192.18;48.60;;;;;;;;;;4983086;28;20065;-41
2021/12/15 06:42:59;;;;;;;186.02;47.95;;;;;;;;;;4980580;28;20478;-42
2021/12/15 06:45:34;;;;;;;184.35;48.20;;;;;;;;;;4985230;28;20026;-42
2021/12/15 06:59:13;;;;;;;144.40;42.20;;;;;;;;;;4988467;28;20065;-43
2021/12/15 07:01:39;;;;;;;144.85;40.95;;;;;;;;;;4981655;28;20122;-43
2021/12/15 07:04:05;;;;;;;140.68;39.30;;;;;;;;;;4987275;28;20113;-41
2021/12/15 07:06:31;;;;;;;140.73;41.25;;;;;;;;;;4984548;28;20446;-41
2021/12/15 07:08:57;;;;;;;135.15;42.10;;;;;;;;;;4989424;28;20089;-41
2021/12/15 07:11:23;;;;;;;140.43;41.17;;;;;;;;;;4987940;28;20187;-41
2021/12/15 07:13:50;;;;;;;136.48;39.58;;;;;;;;;;4987184;28;20365;-42
2021/12/15 07:16:18;;;;;;;143.20;41.67;;;;;;;;;;4986071;28;20042;-38
2021/12/15 07:18:52;;;;;;;123.82;41.80;;;;;;;;;;4985696;28;20030;-37
2021/12/15 07:21:22;;;;;;;124.75;38.88;;;;;;;;;;4989582;28;20061;-39
2021/12/15 07:23:50;;;;;;;129.60;39.08;;;;;;;;;;4983648;28;20556;-38
2021/12/15 07:26:17;;;;;;;112.80;37.85;;;;;;;;;;4984348;28;20536;-40
2021/12/15 07:28:43;;;;;;;111.18;36.13;;;;;;;;;;4992058;28;20140;-38
2021/12/15 07:31:10;;;;;;;121.38;38.95;;;;;;;;;;4994643;28;20033;-39
2021/12/15 07:33:36;;;;;;;115.13;38.40;;;;;;;;;;4990615;28;20033;-39
2021/12/15 07:36:03;;;;;;;105.07;35.50;;;;;;;;;;4994351;28;20458;-38
2021/12/15 07:38:29;;;;;;;104.88;36.72;;;;;;;;;;4996319;28;20058;-38
2021/12/15 07:40:55;;;;;;;98.93;36.08;;;;;;;;;;4989455;28;20062;-38
2021/12/15 07:43:25;;;;;;;101.40;34.88;;;;;;;;;;4989510;28;20026;-38
2021/12/15 07:45:53;;;;;;;92.68;35.47;;;;;;;;;;4990745;28;20026;-38
2021/12/15 07:48:20;;;;;;;95.45;34.72;;;;;;;;;;4981542;28;20030;-37
2021/12/15 07:50:49;;;;;;;91.43;34.88;;;;;;;;;;4983160;28;20030;-38
2021/12/15 07:53:16;;;;;;;94.95;34.42;;;;;;;;;;4979976;28;20145;-39
2021/12/15 07:55:42;;;;;;;93.53;34.70;;;;;;;;;;4984451;28;20033;-38
2021/12/15 07:58:09;;;;;;;95.78;35.58;;;;;;;;;;4994373;28;20057;-38
2021/12/15 08:00:36;;;;;;;91.32;34.97;;;;;;;;;;4984636;28;20148;-39
2021/12/15 08:03:02;;;;;;;87.43;34.30;;;;;;;;;;4977878;28;20023;-38
2021/12/15 08:05:28;;;;;;;79.93;33.45;;;;;;;;;;4982436;28;20022;-38
2021/12/15 08:07:55;;;;;;;87.72;32.30;;;;;;;;;;4987077;28;20081;-37
2021/12/15 08:10:21;;;;;;;88.07;34.30;;;;;;;;;;4987151;28;20029;-38
2021/12/15 08:12:47;;;;;;;87.15;35.80;;;;;;;;;;4989757;28;20064;-38
2021/12/15 08:15:14;;;;;;;88.70;35.38;;;;;;;;;;4987972;28;20077;-38
2021/12/15 08:17:41;;;;;;;91.40;34.60;;;;;;;;;;4988628;28;20034;-38
2021/12/15 08:20:09;;;;;;;82.00;32.70;;;;;;;;;;4989560;28;20044;-38
2021/12/15 08:22:37;;;;;;;91.93;35.35;;;;;;;;;;4990676;28;20081;-38
2021/12/15 08:25:04;;;;;;;96.60;37.65;;;;;;;;;;4990815;28;20026;-44
2021/12/15 08:27:30;;;;;;;91.72;35.92;;;;;;;;;;4991425;28;20034;-37
2021/12/15 08:29:56;;;;;;;94.43;36.42;;;;;;;;;;4991261;28;20188;-38
2021/12/15 08:32:22;;;;;;;90.63;35.13;;;;;;;;;;4991097;28;20034;-39
2021/12/15 08:34:48;;;;;;;96.00;37.83;;;;;;;;;;4991381;28;20035;-38
2021/12/15 08:37:14;;;;;;;86.90;34.67;;;;;;;;;;4991284;28;20629;-37
2021/12/15 08:39:44;;;;;;;97.80;37.03;;;;;;;;;;4990979;28;20117;-38
2021/12/15 08:42:11;;;;;;;82.20;33.35;;;;;;;;;;4991144;28;20029;-38
2021/12/15 08:44:38;;;;;;;89.93;36.15;;;;;;;;;;4990807;28;20057;-38
2021/12/15 08:47:04;;;;;;;82.45;34.92;;;;;;;;;;4989108;28;20026;-39
2021/12/15 08:49:30;;;;;;;81.13;35.15;;;;;;;;;;4987164;28;20429;-38
2021/12/15 08:51:56;;;;;;;83.03;36.05;;;;;;;;;;4986584;28;20034;-39
2021/12/15 08:54:23;;;;;;;90.40;36.80;;;;;;;;;;4985035;28;20033;-37
2021/12/15 08:56:49;;;;;;;85.50;36.83;;;;;;;;;;4978178;28;20597;-38
2021/12/15 08:59:16;;;;;;;81.85;36.03;;;;;;;;;;4979380;28;20031;-38
2021/12/15 09:01:44;;;;;;;83.55;37.08;;;;;;;;;;4977046;28;20084;-37
2021/12/15 09:04:10;;;;;;;77.10;34.55;;;;;;;;;;4984128;28;20030;-38
2021/12/15 09:06:39;;;;;;;81.32;34.55;;;;;;;;;;4987221;28;20057;-39
2021/12/15 09:09:06;;;;;;;84.10;34.80;;;;;;;;;;4987654;28;20690;-39
2021/12/15 09:11:32;;;;;;;77.40;33.13;;;;;;;;;;4990062;28;20036;-38
2021/12/15 09:14:00;;;;;;;78.60;33.75;;;;;;;;;;4988093;28;20076;-38
2021/12/15 09:16:27;;;;;;;74.82;33.30;;;;;;;;;;4994253;28;20069;-38
2021/12/15 09:18:53;;;;;;;78.65;36.97;;;;;;;;;;4986981;28;20334;-37
2021/12/15 09:21:21;;;;;;;71.10;32.55;;;;;;;;;;4993673;28;20050;-38
2021/12/15 09:23:47;;;;;;;76.60;33.90;;;;;;;;;;4989201;28;20062;-38
2021/12/15 09:26:13;;;;;;;81.43;35.28;;;;;;;;;;4983164;28;20022;-38
2021/12/15 09:28:39;;;;;;;80.65;34.10;;;;;;;;;;4987873;28;20038;-38
2021/12/15 09:31:09;;;;;;;82.85;35.08;;;;;;;;;;4991786;28;20058;-37
2021/12/15 09:33:36;;;;;;;80.63;34.17;;;;;;;;;;4988969;28;20050;-38
2021/12/15 09:36:03;;;;;;;80.47;36.78;;;;;;;;;;4989262;28;20018;-37
2021/12/15 09:38:30;;;;;;;85.38;37.92;;;;;;;;;;4990097;28;20138;-36
2021/12/15 09:40:58;;;;;;;81.05;37.53;;;;;;;;;;4990241;28;20069;-38
2021/12/15 09:43:27;;;;;;;89.00;37.65;;;;;;;;;;4989404;28;20508;-38
2021/12/15 09:46:02;;;;;;;87.53;37.17;;;;;;;;;;4987852;28;20030;-38
2021/12/15 09:57:13;;;;;;;81.13;34.58;;;;;;;;;;4988818;28;20096;-38
2021/12/15 10:02:39;;;;;;;89.60;37.30;;;;;;;;;;4986730;28;20046;-38
2021/12/15 10:05:34;;;;;;;86.55;37.58;;;;;;;;;;4988635;28;20098;-38
2021/12/15 10:19:19;;;;;;;82.32;35.50;;;;;;;;;;4993454;28;20052;-39
2021/12/15 10:21:57;;;;;;;89.18;38.85;;;;;;;;;;4995017;28;20427;-39
2021/12/15 10:24:28;;;;;;;90.97;36.65;;;;;;;;;;4993490;28;20026;-38
2021/12/15 10:26:55;;;;;;;81.90;36.95;;;;;;;;;;4995364;28;20081;-37
2021/12/15 10:29:21;;;;;;;88.97;38.42;;;;;;;;;;4993923;28;20026;-38
2021/12/15 10:31:56;;;;;;;85.00;36.03;;;;;;;;;;4988568;28;20038;-38
2021/12/15 10:34:23;;;;;;;89.75;37.03;;;;;;;;;;4985352;28;20088;-37
2021/12/15 10:36:49;;;;;;;82.65;37.20;;;;;;;;;;4987978;28;20034;-37
2021/12/15 10:39:16;;;;;;;88.75;38.83;;;;;;;;;;5000629;28;20031;-38
2021/12/15 10:41:43;;;;;;;87.00;38.22;;;;;;;;;;4991735;28;20708;-36
2021/12/15 10:44:14;;;;;;;91.72;39.15;;;;;;;;;;4985133;28;20022;-39
2021/12/15 10:46:41;;;;;;;76.15;36.35;;;;;;;;;;4988586;28;20031;-38
2021/12/15 10:49:15;;;;;;;87.55;37.65;;;;;;;;;;4987017;28;20070;-38
2021/12/15 10:52:01;;;;;;;86.97;35.67;;;;;;;;;;4982516;28;20129;-37
2021/12/15 10:54:27;;;;;;;;;;;;;;;;;;4983300;28;20034;-36
2021/12/15 10:56:53;;;;;;;87.32;37.15;;;;;;;;;;4989610;28;19996;-37
2021/12/15 10:59:20;;;;;;;89.05;36.05;;;;;;;;;;4986821;28;20034;-37
2021/12/15 11:01:49;;;;;;;83.18;35.75;;;;;;;;;;4981550;28;20053;-37
2021/12/15 11:04:24;;;;;;;86.13;39.15;;;;;;;;;;5004770;28;20481;-37
2021/12/15 11:07:08;;;;;;;86.07;36.13;;;;;;;;;;4989594;28;20038;-36
2021/12/15 11:09:37;;;;;;;84.68;37.55;;;;;;;;;;4992276;28;20034;-38
2021/12/15 11:12:06;;;;;;;82.70;36.63;;;;;;;;;;4994367;28;20030;-45
2021/12/15 11:14:34;;;;;;;84.45;37.33;;;;;;;;;;5003793;28;20105;-38
2021/12/15 11:17:02;;;;;;;83.88;38.08;;;;;;;;;;4993055;28;20100;-37
2021/12/15 11:19:42;;;;;;;82.57;36.55;;;;;;;;;;4993441;28;20448;-37
2021/12/15 11:22:27;;;;;;;78.93;35.72;;;;;;;;;;4991351;28;20035;-37
2021/12/15 11:24:53;;;;;;;83.68;36.72;;;;;;;;;;4987756;28;20029;-38
2021/12/15 11:27:19;;;;;;;79.10;36.90;;;;;;;;;;4992298;28;20058;-40
2021/12/15 11:29:45;;;;;;;81.53;36.58;;;;;;;;;;4992549;28;20077;-38
2021/12/15 11:32:30;;;;;;;88.15;38.50;;;;;;;;;;4990824;28;20030;-38
2021/12/15 11:35:04;;;;;;;85.75;37.92;;;;;;;;;;4996253;28;20101;-37
2021/12/15 11:37:45;;;;;;;80.00;36.58;;;;;;;;;;4993704;28;20057;-38
2021/12/15 11:40:11;;;;;;;79.68;36.72;;;;;;;;;;4994054;28;20057;-37
2021/12/15 11:42:41;;;;;;;81.07;37.38;;;;;;;;;;4992245;28;20022;-37
2021/12/15 11:45:08;;;;;;;70.93;34.88;;;;;;;;;;4992101;28;20026;-37
2021/12/15 11:47:35;;;;;;;79.78;37.92;;;;;;;;;;4992151;28;20041;-37
2021/12/15 11:50:12;;;;;;;75.53;36.28;;;;;;;;;;4991255;28;20197;-39
2021/12/15 11:52:40;;;;;;;80.95;35.65;;;;;;;;;;4990720;28;20030;-39
2021/12/15 11:55:07;;;;;;;75.53;34.95;;;;;;;;;;4992251;28;20029;-39
2021/12/15 11:57:34;;;;;;;70.10;33.92;;;;;;;;;;4991251;28;20030;-41
2021/12/15 12:00:05;;;;;;;79.10;35.63;;;;;;;;;;4999584;28;20045;-38
2021/12/15 12:02:41;;;;;;;71.43;33.03;;;;;;;;;;4990699;28;20030;-38
2021/12/15 12:05:09;;;;;;;75.13;34.80;;;;;;;;;;4988998;28;20070;-40
2021/12/15 12:07:49;;;;;;;67.47;33.65;;;;;;;;;;4991173;28;20598;-40
2021/12/15 12:10:43;;;;;;;75.70;34.00;;;;;;;;;;4992044;28;20436;-40
2021/12/15 12:13:13;;;;;;;73.82;35.22;;;;;;;;;;4991102;28;20113;-36
2021/12/15 12:15:40;;;;;;;66.07;31.92;;;;;;;;;;4993968;28;20087;-39
2021/12/15 12:18:08;;;;;;;67.47;31.77;;;;;;;;;;4991368;28;20045;-38
2021/12/15 12:20:37;;;;;;;68.07;32.50;;;;;;;;;;4988690;28;20133;-38
2021/12/15 12:23:04;;;;;;;70.68;34.35;;;;;;;;;;4990652;28;20029;-41
2021/12/15 12:25:34;;;;;;;68.65;33.65;;;;;;;;;;4989547;28;20064;-39
2021/12/15 12:28:00;;;;;;;65.60;31.85;;;;;;;;;;4995952;28;20029;-38
2021/12/15 12:30:31;;;;;;;72.75;33.97;;;;;;;;;;4990203;28;20030;-38
2021/12/15 12:32:57;;;;;;;71.13;34.40;;;;;;;;;;4983642;28;20037;-37
2021/12/15 12:35:27;;;;;;;71.32;33.53;;;;;;;;;;4990188;28;20030;-37
2021/12/15 12:37:58;;;;;;;71.70;33.35;;;;;;;;;;4986922;28;20080;-37
2021/12/15 12:40:29;;;;;;;66.80;32.35;;;;;;;;;;4990983;28;20026;-38
2021/12/15 12:42:55;;;;;;;66.82;33.28;;;;;;;;;;4987778;28;20273;-36
2021/12/15 12:45:26;;;;;;;59.25;32.30;;;;;;;;;;4990378;28;20022;-38
2021/12/15 12:48:07;;;;;;;62.35;31.52;;;;;;;;;;4989902;28;20516;-39
2021/12/15 13:01:09;;;;;;;65.80;30.50;;;;;;;;;;4987832;28;20035;-37
2021/12/15 13:03:37;;;;;;;61.20;31.95;;;;;;;;;;4990323;28;20018;-36
2021/12/15 13:06:03;;;;;;;61.83;29.85;;;;;;;;;;4989112;28;20073;-38
2021/12/15 13:08:29;;;;;;;63.70;31.88;;;;;;;;;;4989648;28;20030;-38
2021/12/15 13:10:55;;;;;;;61.65;31.00;;;;;;;;;;4977277;28;20521;-37
2021/12/15 13:13:23;;;;;;;66.07;30.88;;;;;;;;;;4985897;28;20057;-38
2021/12/15 13:15:59;;;;;;;61.17;31.10;;;;;;;;;;4990289;28;20041;-37
2021/12/15 13:18:26;;;;;;;62.75;28.58;;;;;;;;;;4990163;28;20663;-37
2021/12/15 13:20:54;;;;;;;65.65;30.73;;;;;;;;;;4990009;28;20065;-36
2021/12/15 13:23:47;;;;;;;68.85;31.67;;;;;;;;;;4988307;28;20098;-38
2021/12/15 13:29:26;;;;;;;62.25;30.88;;;;;;;;;;4990611;28;20045;-39
2021/12/15 13:32:01;;;;;;;57.58;29.75;;;;;;;;;;4987617;28;20639;-39
2021/12/15 13:34:42;;;;;;;57.15;28.23;;;;;;;;;;4987308;28;20042;-38
2021/12/15 13:37:08;;;;;;;57.42;27.95;;;;;;;;;;4980952;28;20520;-38
2021/12/15 13:39:42;;;;;;;59.03;29.45;;;;;;;;;;4979207;28;20022;-39
2021/12/15 13:42:13;;;;;;;62.35;29.98;;;;;;;;;;4978429;28;20093;-39
2021/12/15 13:44:45;;;;;;;53.85;28.73;;;;;;;;;;4987005;28;20037;-39
2021/12/15 13:47:13;;;;;;;63.92;28.40;;;;;;;;;;4993410;28;20023;-39
2021/12/15 13:49:39;;;;;;;64.82;30.52;;;;;;;;;;4994180;28;20066;-38
2021/12/15 13:52:18;;;;;;;59.30;28.23;;;;;;;;;;4994650;28;20096;-39
2021/12/15 13:54:48;;;;;;;60.30;27.42;;;;;;;;;;4999577;28;20565;-38
2021/12/15 13:57:14;;;;;;;51.58;26.58;;;;;;;;;;4997508;28;20025;-37
2021/12/15 13:59:45;;;;;;;55.88;28.20;;;;;;;;;;4987481;28;20030;-38
2021/12/15 14:02:11;;;;;;;58.65;30.08;;;;;;;;;;4989211;28;20117;-36
2021/12/15 14:04:42;;;;;;;61.45;28.38;;;;;;;;;;4988661;28;20018;-38
2021/12/15 14:07:27;;;;;;;57.33;28.15;;;;;;;;;;4992355;28;20018;-38
2021/12/15 14:09:53;;;;;;;55.83;26.30;;;;;;;;;;4986426;28;20134;-38
2021/12/15 14:12:37;;;;;;;60.22;26.77;;;;;;;;;;4991550;28;20090;-40
2021/12/15 14:15:04;;;;;;;54.35;25.55;;;;;;;;;;5006667;28;20524;-39
2021/12/15 14:17:30;;;;;;;50.28;25.05;;;;;;;;;;4992762;28;20030;-38
2021/12/15 14:19:56;;;;;;;61.90;27.17;;;;;;;;;;4993184;28;20029;-39
2021/12/15 14:22:22;;;;;;;55.60;25.85;;;;;;;;;;4989777;28;20023;-38
2021/12/15 14:24:50;;;;;;;53.38;27.35;;;;;;;;;;4984317;28;20402;-39
2021/12/15 14:27:16;;;;;;;56.17;26.88;;;;;;;;;;4990790;28;20029;-39
2021/12/15 14:29:43;;;;;;;57.83;29.42;;;;;;;;;;4993320;28;20101;-39
2021/12/15 14:32:09;;;;;;;58.08;28.23;;;;;;;;;;4994480;28;20108;-37
2021/12/15 14:34:37;;;;;;;56.63;27.33;;;;;;;;;;4996321;28;20022;-38
2021/12/15 14:37:11;;;;;;;58.40;27.67;;;;;;;;;;4998983;28;20037;-37
2021/12/15 14:39:42;;;;;;;50.63;25.55;;;;;;;;;;4994153;28;20022;-38
2021/12/15 14:42:11;;;;;;;54.17;28.42;;;;;;;;;;4993173;28;20058;-37
2021/12/15 14:44:39;;;;;;;62.22;30.23;;;;;;;;;;4989214;28;20026;-37
2021/12/15 14:47:11;;;;;;;64.13;28.52;;;;;;;;;;4989044;28;20113;-38
2021/12/15 14:49:39;;;;;;;58.05;28.20;;;;;;;;;;4988157;28;20034;-37
2021/12/15 14:52:09;;;;;;;55.17;28.35;;;;;;;;;;4991488;28;20543;-38
2021/12/15 14:54:36;;;;;;;60.20;28.00;;;;;;;;;;4992886;28;20026;-38
2021/12/15 14:57:04;;;;;;;60.35;28.15;;;;;;;;;;4987399;28;20113;-39
2021/12/15 14:59:30;;;;;;;56.30;28.33;;;;;;;;;;4986923;28;20038;-38
2021/12/15 15:01:59;;;;;;;64.28;29.33;;;;;;;;;;4988560;28;20465;-38
2021/12/15 15:04:26;;;;;;;62.20;28.33;;;;;;;;;;4989354;28;20466;-37
2021/12/15 15:06:58;;;;;;;62.00;26.90;;;;;;;;;;4988830;28;20030;-38
2021/12/15 15:09:25;;;;;;;57.42;27.35;;;;;;;;;;4989623;28;20044;-38
2021/12/15 15:12:00;;;;;;;58.22;28.40;;;;;;;;;;4988251;28;20509;-37
2021/12/15 15:14:35;;;;;;;55.55;27.50;;;;;;;;;;4987164;28;20026;-37
2021/12/15 15:17:01;;;;;;;56.08;26.15;;;;;;;;;;4986952;28;20500;-38
2021/12/15 15:19:28;;;;;;;64.85;27.88;;;;;;;;;;4988320;28;20034;-40
2021/12/15 15:21:57;;;;;;;56.30;26.25;;;;;;;;;;4987994;28;20121;-39
2021/12/15 15:24:25;;;;;;;63.72;29.83;;;;;;;;;;4986690;28;20015;-37
2021/12/15 15:26:55;;;;;;;70.65;30.17;;;;;;;;;;4991786;28;20093;-37
2021/12/15 15:29:31;;;;;;;55.50;27.92;;;;;;;;;;4989603;28;20065;-37
2021/12/15 15:32:05;;;;;;;61.17;28.27;;;;;;;;;;4987745;28;20072;-37
2021/12/15 15:34:31;;;;;;;69.35;31.75;;;;;;;;;;4986260;28;20096;-38
2021/12/15 15:36:57;;;;;;;62.40;29.48;;;;;;;;;;4986747;28;20066;-38
2021/12/15 15:39:23;;;;;;;63.33;29.63;;;;;;;;;;4984639;28;20450;-38